Time;durP1;ratioP1;P1;durP2;ratioP2;P2;SDS_P1;SDS_P2;PMS_P1;PMS_P2;Temp;Humidity;BMP_temperature;BMP_pressure;BME280_temperature;BME280_humidity;BME280_pressure;Samples;Min_cycle;Max_cycle;Signal;HPM_P1;HPM_P2
2023/03/05 00:01:21;;;;;;;2.83;2.00;;;;;;;;;;5074785;28;20197;-85
2023/03/05 00:03:50;;;;;;;4.72;2.47;;;;;;;;;;5074382;28;20423;-84
2023/03/05 00:06:18;;;;;;;6.55;3.38;;;;;;;;;;5073772;28;20228;-84
2023/03/05 00:08:46;;;;;;;4.28;2.20;;;;;;;;;;5072906;28;20205;-85
2023/03/05 00:11:13;;;;;;;4.28;2.10;;;;;;;;;;5074065;28;20292;-84
2023/03/05 00:13:41;;;;;;;2.85;1.70;;;;;;;;;;5075011;28;20292;-84
2023/03/05 00:16:11;;;;;;;2.92;1.92;;;;;;;;;;5074866;28;20316;-84
2023/03/05 00:18:41;;;;;;;2.80;1.98;;;;;;;;;;5073466;28;20185;-85
2023/03/05 00:21:20;;;;;;;4.10;1.25;;;;;;;;;;5074335;28;20287;-84
2023/03/05 00:23:49;;;;;;;1.58;1.48;;;;;;;;;;5078617;28;20209;-83
2023/03/05 00:26:17;;;;;;;9.25;2.40;;;;;;;;;;5078272;28;20251;-84
2023/03/05 00:28:48;;;;;;;4.30;2.70;;;;;;;;;;5077946;28;20284;-84
2023/03/05 00:31:16;;;;;;;4.60;2.00;;;;;;;;;;5078279;28;20185;-84
2023/03/05 00:33:45;;;;;;;4.95;2.47;;;;;;;;;;5077773;28;20204;-84
2023/03/05 00:36:13;;;;;;;4.57;2.55;;;;;;;;;;5077295;28;20584;-84
2023/03/05 00:38:40;;;;;;;4.15;2.33;;;;;;;;;;5076600;28;20283;-84
2023/03/05 00:41:08;;;;;;;3.85;2.00;;;;;;;;;;5077957;28;20231;-84
2023/03/05 00:43:35;;;;;;;5.18;3.55;;;;;;;;;;5078542;28;20701;-84
2023/03/05 00:46:04;;;;;;;9.25;4.72;;;;;;;;;;5077638;28;20303;-84
2023/03/05 00:48:31;;;;;;;7.88;3.80;;;;;;;;;;5077060;28;20260;-84
2023/03/05 00:51:00;;;;;;;4.20;2.13;;;;;;;;;;5077861;28;20291;-84
2023/03/05 00:53:28;;;;;;;10.52;5.80;;;;;;;;;;5078266;28;20548;-84
2023/03/05 00:55:55;;;;;;;5.35;3.15;;;;;;;;;;5071916;28;20371;-84
2023/03/05 00:58:22;;;;;;;7.05;3.08;;;;;;;;;;5057445;28;20211;-84
2023/03/05 01:00:50;;;;;;;5.80;2.83;;;;;;;;;;5058032;28;20232;-84
2023/03/05 01:03:18;;;;;;;7.28;2.28;;;;;;;;;;5057714;28;20200;-85
2023/03/05 01:05:45;;;;;;;8.70;1.92;;;;;;;;;;5056558;28;20594;-84
2023/03/05 01:08:15;;;;;;;1.60;1.50;;;;;;;;;;5070573;28;20714;-83
2023/03/05 01:10:43;;;;;;;1.98;1.55;;;;;;;;;;5076505;28;20295;-84
2023/03/05 01:13:10;;;;;;;2.55;1.38;;;;;;;;;;5077547;28;20287;-84
2023/03/05 01:15:38;;;;;;;3.58;1.70;;;;;;;;;;5076647;28;20221;-84
2023/03/05 01:18:06;;;;;;;4.20;1.80;;;;;;;;;;5077372;28;20609;-84
2023/03/05 01:20:33;;;;;;;2.60;1.73;;;;;;;;;;5076565;28;20287;-84
2023/03/05 01:23:01;;;;;;;1.70;1.15;;;;;;;;;;5076707;28;20237;-84
2023/03/05 01:25:29;;;;;;;1.58;1.20;;;;;;;;;;5074184;28;20749;-84
2023/03/05 01:27:57;;;;;;;2.38;1.60;;;;;;;;;;5057725;28;20553;-85
2023/03/05 01:30:25;;;;;;;3.42;1.27;;;;;;;;;;5055885;28;20296;-84
2023/03/05 01:32:52;;;;;;;3.05;1.65;;;;;;;;;;5055105;28;20288;-84
2023/03/05 01:35:22;;;;;;;1.35;1.25;;;;;;;;;;5055231;28;20313;-84
2023/03/05 01:37:50;;;;;;;1.50;0.90;;;;;;;;;;5064792;28;20272;-85
2023/03/05 01:40:21;;;;;;;1.83;1.17;;;;;;;;;;5075156;28;20669;-84
2023/03/05 01:42:59;;;;;;;3.40;1.35;;;;;;;;;;5076359;28;20605;-85
2023/03/05 01:45:29;;;;;;;2.33;1.60;;;;;;;;;;5075915;28;20224;-84
2023/03/05 01:47:56;;;;;;;3.28;1.95;;;;;;;;;;5076188;28;20284;-84
2023/03/05 01:50:25;;;;;;;1.48;1.38;;;;;;;;;;5076048;28;20630;-85
2023/03/05 01:52:57;;;;;;;3.40;1.73;;;;;;;;;;5076569;28;20205;-85
2023/03/05 01:55:28;;;;;;;8.30;1.80;;;;;;;;;;5076049;28;20303;-84
2023/03/05 01:58:00;;;;;;;1.00;1.00;;;;;;;;;;5075646;28;20582;-84
2023/03/05 02:00:31;;;;;;;1.23;1.13;;;;;;;;;;5075495;28;20186;-84
2023/03/05 02:03:03;;;;;;;1.23;1.13;;;;;;;;;;5075533;28;20299;-84
2023/03/05 02:05:34;;;;;;;2.42;1.60;;;;;;;;;;5075108;28;20225;-84
2023/03/05 02:08:04;;;;;;;2.40;1.20;;;;;;;;;;5063598;28;20208;-85
2023/03/05 02:10:36;;;;;;;1.40;1.23;;;;;;;;;;5055151;28;20692;-84
2023/03/05 02:13:08;;;;;;;2.90;1.23;;;;;;;;;;5056070;28;20182;-84
2023/03/05 02:15:36;;;;;;;2.38;1.60;;;;;;;;;;5055378;28;20228;-84
2023/03/05 02:18:04;;;;;;;1.23;1.08;;;;;;;;;;5055794;28;20194;-84
2023/03/05 02:20:44;;;;;;;4.93;1.92;;;;;;;;;;5055014;28;20293;-84
2023/03/05 02:23:13;;;;;;;1.50;1.40;;;;;;;;;;5055699;28;20269;-85
2023/03/05 02:25:41;;;;;;;4.43;1.40;;;;;;;;;;5055362;28;20316;-84
2023/03/05 02:28:12;;;;;;;3.05;1.10;;;;;;;;;;5055734;28;20285;-84
2023/03/05 02:30:39;;;;;;;2.08;1.25;;;;;;;;;;5054894;28;20288;-84
2023/03/05 02:33:07;;;;;;;2.55;1.45;;;;;;;;;;5055453;28;20197;-84
2023/03/05 02:35:34;;;;;;;1.52;1.40;;;;;;;;;;5054105;28;20256;-84
2023/03/05 02:38:02;;;;;;;3.80;1.60;;;;;;;;;;5054368;28;20201;-84
2023/03/05 02:40:31;;;;;;;1.65;1.33;;;;;;;;;;5054649;28;20232;-83
2023/03/05 02:42:58;;;;;;;1.63;1.35;;;;;;;;;;5055344;28;20201;-84
2023/03/05 02:45:26;;;;;;;1.10;1.00;;;;;;;;;;5054643;28;20272;-83
2023/03/05 02:47:54;;;;;;;2.10;1.42;;;;;;;;;;5054950;28;20202;-84
2023/03/05 02:50:22;;;;;;;2.53;1.40;;;;;;;;;;5053606;28;20204;-84
2023/03/05 02:52:50;;;;;;;1.83;1.70;;;;;;;;;;5054849;28;20212;-85
2023/03/05 02:55:17;;;;;;;5.35;1.98;;;;;;;;;;5055581;28;20309;-84
2023/03/05 02:57:46;;;;;;;3.00;1.45;;;;;;;;;;5074867;28;20197;-84
2023/03/05 03:00:15;;;;;;;1.40;1.30;;;;;;;;;;5074311;28;20264;-83
2023/03/05 03:02:42;;;;;;;5.30;1.45;;;;;;;;;;5074478;28;20193;-84
2023/03/05 03:05:10;;;;;;;1.35;1.10;;;;;;;;;;5072089;28;20692;-84
2023/03/05 03:07:38;;;;;;;3.35;1.50;;;;;;;;;;5054154;28;20208;-84
2023/03/05 03:10:07;;;;;;;2.03;1.52;;;;;;;;;;5053790;28;20571;-84
2023/03/05 03:12:38;;;;;;;6.28;2.10;;;;;;;;;;5054514;28;20607;-84
2023/03/05 03:15:09;;;;;;;2.08;1.52;;;;;;;;;;5054795;28;20596;-84
2023/03/05 03:17:38;;;;;;;6.70;2.35;;;;;;;;;;5054847;28;20228;-84
2023/03/05 03:20:09;;;;;;;2.15;1.15;;;;;;;;;;5053821;28;20388;-83
2023/03/05 03:22:37;;;;;;;3.55;1.48;;;;;;;;;;5054148;28;20196;-84
2023/03/05 03:25:06;;;;;;;2.42;1.58;;;;;;;;;;5054341;28;20598;-83
2023/03/05 03:27:34;;;;;;;3.33;1.92;;;;;;;;;;5072229;28;20225;-83
2023/03/05 03:30:03;;;;;;;2.80;1.67;;;;;;;;;;5072699;28;20689;-82
2023/03/05 03:32:33;;;;;;;2.88;1.90;;;;;;;;;;5072251;28;20207;-85
2023/03/05 03:35:02;;;;;;;1.92;1.20;;;;;;;;;;5059631;28;20213;-84
2023/03/05 03:37:30;;;;;;;1.88;1.65;;;;;;;;;;5052610;28;20225;-84
2023/03/05 03:39:58;;;;;;;1.40;1.30;;;;;;;;;;5051782;28;20288;-83
2023/03/05 03:42:26;;;;;;;1.33;1.23;;;;;;;;;;5052396;28;20288;-83
2023/03/05 03:44:53;;;;;;;1.88;1.40;;;;;;;;;;5063442;28;20312;-84
2023/03/05 03:47:21;;;;;;;1.30;1.20;;;;;;;;;;5072290;28;20327;-83
2023/03/05 03:49:53;;;;;;;2.72;1.50;;;;;;;;;;5071426;28;20636;-84
2023/03/05 03:52:21;;;;;;;2.03;1.50;;;;;;;;;;5072518;28;20186;-85
2023/03/05 03:54:49;;;;;;;3.90;1.65;;;;;;;;;;5061274;28;20267;-84
2023/03/05 03:57:17;;;;;;;1.85;1.25;;;;;;;;;;5071950;28;20236;-84
2023/03/05 03:59:44;;;;;;;3.70;2.35;;;;;;;;;;5075826;28;20207;-83
2023/03/05 04:02:13;;;;;;;6.28;1.50;;;;;;;;;;5076189;28;20694;-82
2023/03/05 04:04:41;;;;;;;2.67;2.13;;;;;;;;;;5074734;28;20207;-83
2023/03/05 04:07:10;;;;;;;1.38;1.10;;;;;;;;;;5075974;28;20319;-84
2023/03/05 04:09:37;;;;;;;3.10;1.92;;;;;;;;;;5075558;28;20291;-85
2023/03/05 04:12:05;;;;;;;5.40;2.15;;;;;;;;;;5076408;28;20201;-84
2023/03/05 04:14:33;;;;;;;1.58;1.48;;;;;;;;;;5075920;28;20196;-84
2023/03/05 04:17:00;;;;;;;1.75;1.63;;;;;;;;;;5076010;28;20208;-83
2023/03/05 04:19:29;;;;;;;1.20;1.10;;;;;;;;;;5075339;28;20283;-83
2023/03/05 04:21:57;;;;;;;1.38;1.25;;;;;;;;;;5076113;28;20885;-83
2023/03/05 04:24:26;;;;;;;2.72;1.80;;;;;;;;;;5075737;28;20284;-84
2023/03/05 04:26:53;;;;;;;2.88;1.60;;;;;;;;;;5061127;28;20233;-84
2023/03/05 04:29:21;;;;;;;1.80;1.70;;;;;;;;;;5054875;28;20204;-82
2023/03/05 04:31:48;;;;;;;3.42;1.90;;;;;;;;;;5056133;28;20725;-85
2023/03/05 04:34:16;;;;;;;4.10;1.55;;;;;;;;;;5055720;28;20292;-83
2023/03/05 04:36:43;;;;;;;3.47;1.80;;;;;;;;;;5055355;28;20221;-82
2023/03/05 04:39:11;;;;;;;3.65;1.60;;;;;;;;;;5055078;28;20207;-85
2023/03/05 04:41:39;;;;;;;4.68;1.77;;;;;;;;;;5055642;28;20205;-84
2023/03/05 04:44:07;;;;;;;2.45;1.50;;;;;;;;;;5055393;28;20292;-84
2023/03/05 04:46:34;;;;;;;5.10;1.63;;;;;;;;;;5054899;28;20233;-84
2023/03/05 04:49:02;;;;;;;2.40;2.17;;;;;;;;;;5054849;28;20296;-84
2023/03/05 04:51:29;;;;;;;2.90;1.90;;;;;;;;;;5055023;28;20309;-82
2023/03/05 04:53:57;;;;;;;2.47;1.60;;;;;;;;;;5055240;28;20312;-84
2023/03/05 04:56:24;;;;;;;2.30;1.65;;;;;;;;;;5055462;28;20221;-83
2023/03/05 04:58:53;;;;;;;2.65;2.20;;;;;;;;;;5054615;28;20297;-84
2023/03/05 05:01:22;;;;;;;2.30;1.60;;;;;;;;;;5068209;28;20225;-84
2023/03/05 05:03:50;;;;;;;3.10;1.40;;;;;;;;;;5075086;28;20205;-84
2023/03/05 05:06:17;;;;;;;2.70;1.60;;;;;;;;;;5074852;28;20251;-84
2023/03/05 05:08:44;;;;;;;2.28;1.50;;;;;;;;;;5073592;28;20207;-84
2023/03/05 05:11:14;;;;;;;1.63;1.27;;;;;;;;;;5074922;28;20288;-83
2023/03/05 05:13:42;;;;;;;2.80;1.77;;;;;;;;;;5075296;28;20201;-84
2023/03/05 05:16:11;;;;;;;2.33;1.90;;;;;;;;;;5075010;28;20227;-85
2023/03/05 05:18:38;;;;;;;4.68;1.73;;;;;;;;;;5074500;28;20205;-86
2023/03/05 05:21:09;;;;;;;2.97;2.10;;;;;;;;;;5074471;28;20297;-84
2023/03/05 05:23:36;;;;;;;1.75;1.45;;;;;;;;;;5054842;28;20293;-83
2023/03/05 05:26:06;;;;;;;2.03;1.27;;;;;;;;;;5061370;28;20235;-83
2023/03/05 05:28:34;;;;;;;4.00;1.70;;;;;;;;;;5073872;28;20225;-84
2023/03/05 05:31:08;;;;;;;3.75;1.90;;;;;;;;;;5074919;28;20228;-83
2023/03/05 05:33:37;;;;;;;2.75;1.40;;;;;;;;;;5074662;28;20189;-83
2023/03/05 05:36:06;;;;;;;5.07;1.92;;;;;;;;;;5074393;28;20781;-82
2023/03/05 05:38:34;;;;;;;4.25;1.63;;;;;;;;;;5073925;28;20197;-84
2023/03/05 05:41:06;;;;;;;2.35;1.65;;;;;;;;;;5071869;28;20287;-86
2023/03/05 05:43:34;;;;;;;1.58;1.40;;;;;;;;;;5063895;28;20210;-86
2023/03/05 05:46:02;;;;;;;4.85;1.50;;;;;;;;;;5060833;28;20313;-85
2023/03/05 05:48:31;;;;;;;3.17;2.05;;;;;;;;;;5054058;28;20620;-83
2023/03/05 05:51:04;;;;;;;2.38;1.15;;;;;;;;;;5054141;28;20204;-85
2023/03/05 05:53:32;;;;;;;3.75;1.45;;;;;;;;;;5054288;28;20730;-85
2023/03/05 05:55:59;;;;;;;4.85;1.67;;;;;;;;;;5060754;28;20221;-85
2023/03/05 05:58:27;;;;;;;2.13;1.25;;;;;;;;;;5073728;28;20205;-84
2023/03/05 06:00:54;;;;;;;3.97;1.58;;;;;;;;;;5073116;28;20628;-85
2023/03/05 06:03:22;;;;;;;3.17;1.67;;;;;;;;;;5073788;28;20678;-87
2023/03/05 06:05:50;;;;;;;3.05;1.23;;;;;;;;;;5073273;28;20709;-84
2023/03/05 06:08:19;;;;;;;1.50;1.40;;;;;;;;;;5073855;28;20224;-84
2023/03/05 06:10:54;;;;;;;3.25;1.88;;;;;;;;;;5073469;28;20280;-85
2023/03/05 06:13:22;;;;;;;3.85;1.40;;;;;;;;;;5073756;28;20362;-85
2023/03/05 06:15:57;;;;;;;1.92;1.70;;;;;;;;;;5073820;28;20652;-84
2023/03/05 06:18:25;;;;;;;4.45;1.42;;;;;;;;;;5073803;28;20195;-85
2023/03/05 06:20:56;;;;;;;4.35;1.67;;;;;;;;;;5072978;28;20227;-85
2023/03/05 06:23:26;;;;;;;1.85;1.40;;;;;;;;;;5073793;28;20633;-85
2023/03/05 06:25:55;;;;;;;4.78;2.22;;;;;;;;;;5073532;28;20320;-84
2023/03/05 06:28:22;;;;;;;3.28;1.38;;;;;;;;;;5073184;28;20227;-84
2023/03/05 06:30:49;;;;;;;5.95;1.63;;;;;;;;;;5072986;28;20288;-84
2023/03/05 06:33:17;;;;;;;3.17;1.60;;;;;;;;;;5073147;28;20203;-84
2023/03/05 06:35:44;;;;;;;3.47;1.83;;;;;;;;;;5073244;28;20715;-85
2023/03/05 06:38:12;;;;;;;2.78;1.27;;;;;;;;;;5073145;28;20713;-83
2023/03/05 06:40:41;;;;;;;1.60;1.35;;;;;;;;;;5072168;28;20287;-85
2023/03/05 06:43:08;;;;;;;2.83;1.20;;;;;;;;;;5073232;28;20207;-83
2023/03/05 06:45:36;;;;;;;1.95;1.52;;;;;;;;;;5073047;28;20312;-83
2023/03/05 06:48:03;;;;;;;2.95;1.90;;;;;;;;;;5072976;28;20323;-84
2023/03/05 06:50:31;;;;;;;3.13;1.60;;;;;;;;;;5072787;28;20201;-85
2023/03/05 06:52:58;;;;;;;4.35;1.58;;;;;;;;;;5072979;28;20289;-85
2023/03/05 06:55:26;;;;;;;2.80;1.42;;;;;;;;;;5069514;28;20758;-85
2023/03/05 06:57:54;;;;;;;1.33;1.13;;;;;;;;;;5052946;28;20197;-84
2023/03/05 07:00:28;;;;;;;3.38;2.15;;;;;;;;;;5052055;28;20297;-85
2023/03/05 07:02:55;;;;;;;1.60;1.50;;;;;;;;;;5053190;28;20186;-85
2023/03/05 07:05:23;;;;;;;3.65;1.73;;;;;;;;;;5053005;28;20233;-84
2023/03/05 07:07:50;;;;;;;2.60;1.52;;;;;;;;;;5052529;28;20312;-84
2023/03/05 07:10:18;;;;;;;2.03;1.45;;;;;;;;;;5052064;28;20288;-85
2023/03/05 07:12:46;;;;;;;5.82;1.50;;;;;;;;;;5052814;28;20202;-85
2023/03/05 07:15:14;;;;;;;3.50;1.60;;;;;;;;;;5052620;28;20311;-84
2023/03/05 07:17:42;;;;;;;3.28;2.03;;;;;;;;;;5052912;28;20244;-85
2023/03/05 07:20:11;;;;;;;2.65;1.20;;;;;;;;;;5052898;28;20289;-84
2023/03/05 07:22:39;;;;;;;1.55;1.45;;;;;;;;;;5054120;28;20198;-84
2023/03/05 07:25:08;;;;;;;1.70;1.20;;;;;;;;;;5053615;28;20320;-84
2023/03/05 07:27:37;;;;;;;3.28;1.70;;;;;;;;;;5054185;28;20193;-84
2023/03/05 07:30:07;;;;;;;2.45;1.42;;;;;;;;;;5053843;28;20201;-84
2023/03/05 07:32:37;;;;;;;1.67;1.30;;;;;;;;;;5053008;28;20241;-85
2023/03/05 07:35:05;;;;;;;1.40;1.30;;;;;;;;;;5053359;28;20312;-85
2023/03/05 07:37:32;;;;;;;1.85;1.63;;;;;;;;;;5053274;28;20208;-86
2023/03/05 07:40:00;;;;;;;1.50;1.40;;;;;;;;;;5053045;28;20208;-85
2023/03/05 07:42:27;;;;;;;2.10;1.42;;;;;;;;;;5054145;28;20205;-85
2023/03/05 07:44:55;;;;;;;2.95;1.52;;;;;;;;;;5053797;28;20293;-85
2023/03/05 07:47:23;;;;;;;1.48;1.23;;;;;;;;;;5054575;28;20244;-87
2023/03/05 07:49:52;;;;;;;1.38;1.10;;;;;;;;;;5053314;28;20602;-85
2023/03/05 07:52:19;;;;;;;2.22;1.33;;;;;;;;;;5053850;28;20229;-85
2023/03/05 07:54:47;;;;;;;3.08;1.35;;;;;;;;;;5052348;28;20204;-85
2023/03/05 07:57:16;;;;;;;2.03;1.40;;;;;;;;;;5070909;28;20296;-84
2023/03/05 07:59:43;;;;;;;1.30;1.20;;;;;;;;;;5072427;28;20288;-85
2023/03/05 08:02:12;;;;;;;2.10;1.30;;;;;;;;;;5073908;28;20201;-85
2023/03/05 08:04:41;;;;;;;2.15;1.52;;;;;;;;;;5073355;28;20204;-83
2023/03/05 08:07:10;;;;;;;1.00;0.95;;;;;;;;;;5073132;28;20251;-85
2023/03/05 08:09:38;;;;;;;1.20;1.15;;;;;;;;;;5072797;28;20279;-86
2023/03/05 08:12:06;;;;;;;1.55;1.20;;;;;;;;;;5074511;28;20722;-85
2023/03/05 08:14:33;;;;;;;1.30;1.10;;;;;;;;;;5073884;28;20820;-85
2023/03/05 08:17:01;;;;;;;1.30;0.95;;;;;;;;;;5073909;28;20664;-86
2023/03/05 08:19:28;;;;;;;1.30;1.20;;;;;;;;;;5073326;28;20684;-85
2023/03/05 08:21:56;;;;;;;1.30;1.20;;;;;;;;;;5073781;28;20209;-86
2023/03/05 08:24:28;;;;;;;1.10;1.10;;;;;;;;;;5073891;28;20665;-86
2023/03/05 08:26:56;;;;;;;0.90;0.90;;;;;;;;;;5073684;28;20296;-85
2023/03/05 08:29:24;;;;;;;0.98;0.98;;;;;;;;;;5073917;28;20689;-85
2023/03/05 08:31:52;;;;;;;1.00;1.00;;;;;;;;;;5074233;28;20247;-85
2023/03/05 08:34:20;;;;;;;1.40;1.30;;;;;;;;;;5073874;28;20287;-86
2023/03/05 08:36:48;;;;;;;1.48;1.38;;;;;;;;;;5073431;28;20289;-85
2023/03/05 08:39:15;;;;;;;1.88;1.67;;;;;;;;;;5072691;28;20197;-85
2023/03/05 08:41:45;;;;;;;2.55;1.92;;;;;;;;;;5073738;28;20207;-84
2023/03/05 08:44:12;;;;;;;3.17;2.20;;;;;;;;;;5077373;28;20289;-85
2023/03/05 08:46:40;;;;;;;1.88;1.70;;;;;;;;;;5076827;28;20596;-85
2023/03/05 08:49:07;;;;;;;1.88;1.77;;;;;;;;;;5075902;28;20227;-85
2023/03/05 08:51:35;;;;;;;2.53;2.25;;;;;;;;;;5077236;28;20229;-85
2023/03/05 08:54:05;;;;;;;4.20;2.40;;;;;;;;;;5077158;28;20203;-86
2023/03/05 08:56:33;;;;;;;3.10;2.80;;;;;;;;;;5064956;28;20236;-84
2023/03/05 08:59:03;;;;;;;3.08;2.75;;;;;;;;;;5056982;28;20604;-84
2023/03/05 09:01:31;;;;;;;3.00;2.30;;;;;;;;;;5055341;28;20296;-86
2023/03/05 09:03:59;;;;;;;2.20;1.98;;;;;;;;;;5056601;28;20201;-85
2023/03/05 09:06:28;;;;;;;3.72;2.28;;;;;;;;;;5056472;28;20733;-84
2023/03/05 09:08:55;;;;;;;1.77;1.65;;;;;;;;;;5055710;28;20230;-85
2023/03/05 09:11:23;;;;;;;1.92;1.45;;;;;;;;;;5057516;28;20229;-84
2023/03/05 09:13:50;;;;;;;2.97;2.42;;;;;;;;;;5056496;28;20210;-88
2023/03/05 09:16:20;;;;;;;2.92;1.80;;;;;;;;;;5054975;28;20313;-89
2023/03/05 09:18:48;;;;;;;2.75;1.95;;;;;;;;;;5055429;28;20293;-89
2023/03/05 09:21:18;;;;;;;2.83;2.08;;;;;;;;;;5054958;28;20202;-88
2023/03/05 09:23:47;;;;;;;1.80;1.70;;;;;;;;;;5054785;28;20276;-89
2023/03/05 09:26:18;;;;;;;2.33;2.10;;;;;;;;;;5063756;28;20240;-86
2023/03/05 09:28:47;;;;;;;4.28;2.00;;;;;;;;;;5075618;28;20190;-85
2023/03/05 09:31:14;;;;;;;1.98;1.70;;;;;;;;;;5075860;28;20207;-85
2023/03/05 09:33:43;;;;;;;2.92;2.30;;;;;;;;;;5077087;28;20228;-85
2023/03/05 09:36:20;;;;;;;4.78;2.38;;;;;;;;;;5075668;28;20259;-87
2023/03/05 09:38:48;;;;;;;2.65;1.88;;;;;;;;;;5075717;28;20211;-86
2023/03/05 09:41:23;;;;;;;2.08;1.77;;;;;;;;;;5076851;28;20201;-86
2023/03/05 09:43:59;;;;;;;1.70;1.60;;;;;;;;;;5076411;28;20215;-85
2023/03/05 09:46:40;;;;;;;1.70;1.60;;;;;;;;;;5075751;28;20227;-85
2023/03/05 09:49:18;;;;;;;2.33;1.73;;;;;;;;;;5075671;28;20599;-84
2023/03/05 09:51:46;;;;;;;2.08;1.30;;;;;;;;;;5075931;28;20209;-83
2023/03/05 09:54:17;;;;;;;2.35;1.20;;;;;;;;;;5075161;28;20674;-83
2023/03/05 09:56:48;;;;;;;1.48;1.30;;;;;;;;;;5074786;28;20253;-85
2023/03/05 09:59:27;;;;;;;4.45;2.03;;;;;;;;;;5075205;28;20682;-84
2023/03/05 10:01:58;;;;;;;2.08;1.92;;;;;;;;;;5075700;28;20189;-85
2023/03/05 10:04:33;;;;;;;1.55;1.42;;;;;;;;;;5075167;28;20185;-84
2023/03/05 10:07:04;;;;;;;2.78;1.40;;;;;;;;;;5074140;28;20201;-83
2023/03/05 10:09:44;;;;;;;1.42;1.33;;;;;;;;;;5074528;28;20679;-85
2023/03/05 10:12:22;;;;;;;1.92;1.70;;;;;;;;;;5075590;28;20181;-84
2023/03/05 10:14:50;;;;;;;1.30;1.20;;;;;;;;;;5075374;28;20251;-85
2023/03/05 10:17:54;;;;;;;1.45;1.33;;;;;;;;;;5074747;28;20637;-85
2023/03/05 10:20:49;;;;;;;2.85;1.45;;;;;;;;;;5074177;28;20630;-85
2023/03/05 10:24:00;;;;;;;1.30;1.20;;;;;;;;;;5075506;28;20240;-85
2023/03/05 10:26:41;;;;;;;2.65;1.92;;;;;;;;;;5073779;28;20225;-83
2023/03/05 10:29:29;;;;;;;1.80;1.70;;;;;;;;;;5074477;28;20177;-84
2023/03/05 10:32:11;;;;;;;1.52;1.42;;;;;;;;;;5074624;28;20182;-84
2023/03/05 10:35:16;;;;;;;1.40;1.30;;;;;;;;;;5074153;28;20267;-84
2023/03/05 10:38:01;;;;;;;3.65;1.98;;;;;;;;;;5049455;28;20213;-85
2023/03/05 10:40:31;;;;;;;1.92;1.60;;;;;;;;;;5074281;28;20268;-86
2023/03/05 10:43:06;;;;;;;2.08;1.77;;;;;;;;;;5075621;28;20197;-86
2023/03/05 10:45:39;;;;;;;1.80;1.70;;;;;;;;;;5074990;28;20331;-85
2023/03/05 10:48:13;;;;;;;2.13;2.03;;;;;;;;;;5074193;28;20280;-85
2023/03/05 10:50:44;;;;;;;1.80;1.70;;;;;;;;;;5073886;28;20292;-84
2023/03/05 10:53:20;;;;;;;1.73;1.38;;;;;;;;;;5074955;28;20189;-84
2023/03/05 10:55:49;;;;;;;2.15;1.63;;;;;;;;;;5074241;28;20225;-84
2023/03/05 10:58:17;;;;;;;1.70;1.60;;;;;;;;;;5074426;28;20196;-85
2023/03/05 11:01:00;;;;;;;1.08;1.08;;;;;;;;;;5073553;28;20554;-85
2023/03/05 11:03:49;;;;;;;1.30;1.17;;;;;;;;;;5074575;28;20654;-84
2023/03/05 11:06:31;;;;;;;1.58;1.48;;;;;;;;;;5072903;28;20221;-84
2023/03/05 11:09:21;;;;;;;1.83;1.73;;;;;;;;;;5075007;28;20208;-85
2023/03/05 11:12:07;;;;;;;1.70;1.60;;;;;;;;;;5073906;28;20688;-85
2023/03/05 11:14:37;;;;;;;1.33;1.20;;;;;;;;;;5073445;28;20185;-84
2023/03/05 11:17:27;;;;;;;1.55;1.45;;;;;;;;;;5073737;28;20193;-85
2023/03/05 11:19:56;;;;;;;1.38;1.27;;;;;;;;;;5073166;28;20265;-85
2023/03/05 11:22:25;;;;;;;1.30;1.20;;;;;;;;;;5073620;28;20203;-84
2023/03/05 11:25:17;;;;;;;1.42;1.33;;;;;;;;;;5076023;28;20252;-85
2023/03/05 11:27:50;;;;;;;1.00;1.00;;;;;;;;;;5073987;28;20205;-86
2023/03/05 11:30:22;;;;;;;1.10;1.00;;;;;;;;;;5073067;28;20676;-85
2023/03/05 11:32:49;;;;;;;2.50;1.27;;;;;;;;;;5073622;28;20276;-86
2023/03/05 11:35:32;;;;;;;1.27;1.17;;;;;;;;;;5073051;28;20259;-85
2023/03/05 11:38:05;;;;;;;1.75;1.30;;;;;;;;;;5074002;28;20268;-85
2023/03/05 11:40:35;;;;;;;3.80;1.83;;;;;;;;;;5073857;28;20197;-86
2023/03/05 11:43:05;;;;;;;4.00;1.60;;;;;;;;;;5075155;28;20192;-84
2023/03/05 11:45:33;;;;;;;2.38;1.90;;;;;;;;;;5073721;28;20252;-85
2023/03/05 11:48:08;;;;;;;1.70;1.40;;;;;;;;;;5073280;28;20592;-85
2023/03/05 11:50:36;;;;;;;1.90;1.25;;;;;;;;;;5072503;28;20291;-85
2023/03/05 11:53:08;;;;;;;1.50;1.40;;;;;;;;;;5073008;28;20576;-85
2023/03/05 11:55:41;;;;;;;4.53;1.45;;;;;;;;;;5069481;28;20312;-87
2023/03/05 11:58:28;;;;;;;3.35;1.52;;;;;;;;;;5053654;28;20277;-85
2023/03/05 12:00:56;;;;;;;1.35;1.27;;;;;;;;;;5052993;28;20276;-85
2023/03/05 12:03:27;;;;;;;1.58;1.48;;;;;;;;;;5052938;28;20233;-85
2023/03/05 12:05:59;;;;;;;1.45;1.35;;;;;;;;;;5052406;28;20348;-85
2023/03/05 12:08:31;;;;;;;1.90;1.17;;;;;;;;;;5053084;28;20562;-86
2023/03/05 12:11:07;;;;;;;1.40;1.27;;;;;;;;;;5053069;28;20296;-86
2023/03/05 12:13:37;;;;;;;1.00;1.00;;;;;;;;;;5053710;28;20277;-86
2023/03/05 12:16:15;;;;;;;2.67;1.27;;;;;;;;;;5052724;28;20233;-86
2023/03/05 12:18:52;;;;;;;3.60;1.48;;;;;;;;;;5055340;28;20208;-85
2023/03/05 12:21:33;;;;;;;1.10;1.10;;;;;;;;;;5056336;28;20192;-85
2023/03/05 12:24:03;;;;;;;1.40;1.30;;;;;;;;;;5056879;28;20190;-85
2023/03/05 12:27:06;;;;;;;1.25;1.15;;;;;;;;;;5067627;28;20240;-85
2023/03/05 12:29:42;;;;;;;1.30;1.20;;;;;;;;;;5076381;28;20673;-85
2023/03/05 12:32:52;;;;;;;3.15;1.10;;;;;;;;;;5076571;28;20670;-84
2023/03/05 12:35:26;;;;;;;1.13;1.13;;;;;;;;;;5075929;28;20229;-85
2023/03/05 12:38:30;;;;;;;3.22;1.70;;;;;;;;;;5075764;28;20283;-86
2023/03/05 12:41:43;;;;;;;2.40;1.27;;;;;;;;;;5076557;28;20272;-85
2023/03/05 12:44:22;;;;;;;2.45;1.40;;;;;;;;;;5051778;28;20236;-85
2023/03/05 12:47:22;;;;;;;1.30;1.20;;;;;;;;;;5076325;28;20638;-85
2023/03/05 12:49:50;;;;;;;1.50;1.40;;;;;;;;;;5075521;28;20195;-84
2023/03/05 12:52:28;;;;;;;2.25;1.13;;;;;;;;;;5076018;28;20216;-85
2023/03/05 12:55:02;;;;;;;1.38;1.20;;;;;;;;;;5075367;28;20274;-85
2023/03/05 12:57:30;;;;;;;1.58;1.45;;;;;;;;;;5076189;28;20197;-84
2023/03/05 13:00:05;;;;;;;2.22;1.45;;;;;;;;;;5075481;28;20287;-84
2023/03/05 13:02:36;;;;;;;1.83;1.58;;;;;;;;;;5076224;28;20223;-85
2023/03/05 13:05:08;;;;;;;1.67;1.25;;;;;;;;;;5075670;28;20273;-85
2023/03/05 13:07:35;;;;;;;1.50;1.40;;;;;;;;;;5075109;28;20197;-85
2023/03/05 13:10:03;;;;;;;1.55;1.45;;;;;;;;;;5075253;28;20232;-86
2023/03/05 13:12:31;;;;;;;1.25;1.15;;;;;;;;;;5075110;28;20232;-86
2023/03/05 13:15:05;;;;;;;1.67;1.33;;;;;;;;;;5075271;28;20248;-85
2023/03/05 13:17:38;;;;;;;1.13;1.02;;;;;;;;;;5075798;28;20218;-85
2023/03/05 13:20:29;;;;;;;1.83;1.73;;;;;;;;;;5074715;28;20205;-85
2023/03/05 13:23:15;;;;;;;1.17;1.10;;;;;;;;;;5075849;28;20237;-85
2023/03/05 13:25:43;;;;;;;1.15;1.15;;;;;;;;;;5071204;28;20240;-85
2023/03/05 13:28:13;;;;;;;1.58;1.15;;;;;;;;;;5056254;28;20224;-85
2023/03/05 13:30:49;;;;;;;0.80;0.80;;;;;;;;;;5054539;28;20206;-85
2023/03/05 13:33:21;;;;;;;1.58;1.33;;;;;;;;;;5055441;28;20608;-85
2023/03/05 13:35:48;;;;;;;1.30;1.20;;;;;;;;;;5055028;28;20636;-84
2023/03/05 13:38:24;;;;;;;1.58;1.30;;;;;;;;;;5054869;28;20206;-84
2023/03/05 13:41:20;;;;;;;1.83;1.38;;;;;;;;;;5055172;28;20200;-84
2023/03/05 13:43:50;;;;;;;1.83;1.73;;;;;;;;;;5019834;28;20232;-85
2023/03/05 13:46:28;;;;;;;1.60;1.50;;;;;;;;;;5055363;28;20741;-85
2023/03/05 13:48:56;;;;;;;2.38;1.60;;;;;;;;;;5054690;28;20277;-85
2023/03/05 13:51:24;;;;;;;1.15;1.13;;;;;;;;;;5054940;28;20205;-85
2023/03/05 13:53:52;;;;;;;2.25;1.30;;;;;;;;;;5055309;28;20208;-86
2023/03/05 13:56:20;;;;;;;1.40;1.30;;;;;;;;;;5063611;28;20282;-85
2023/03/05 13:58:54;;;;;;;1.10;1.10;;;;;;;;;;5074672;28;20211;-84
2023/03/05 14:01:41;;;;;;;1.80;1.40;;;;;;;;;;5074896;28;20190;-85
2023/03/05 14:04:19;;;;;;;2.65;1.77;;;;;;;;;;5074997;28;20291;-84
2023/03/05 14:06:50;;;;;;;2.03;1.88;;;;;;;;;;5074249;28;20657;-84
2023/03/05 14:09:22;;;;;;;1.85;1.33;;;;;;;;;;5074234;28;20201;-84
2023/03/05 14:11:55;;;;;;;1.35;1.25;;;;;;;;;;5075166;28;20205;-84
2023/03/05 14:14:24;;;;;;;2.53;1.83;;;;;;;;;;5074682;28;20561;-88
2023/03/05 14:16:53;;;;;;;1.80;1.52;;;;;;;;;;5074293;28;20270;-88
2023/03/05 14:19:38;;;;;;;1.83;1.50;;;;;;;;;;5073222;28;20288;-88
2023/03/05 14:22:27;;;;;;;1.70;1.60;;;;;;;;;;5074109;28;20185;-88
2023/03/05 14:24:55;;;;;;;2.25;2.00;;;;;;;;;;5073837;28;20221;-89
2023/03/05 14:27:22;;;;;;;2.70;2.30;;;;;;;;;;5073930;28;20232;-88
2023/03/05 14:29:50;;;;;;;2.10;1.90;;;;;;;;;;5073500;28;20304;-88
2023/03/05 14:32:25;;;;;;;1.83;1.73;;;;;;;;;;5073812;28;20308;-88
2023/03/05 14:34:58;;;;;;;1.92;1.73;;;;;;;;;;5073848;28;20776;-88
2023/03/05 14:37:35;;;;;;;3.33;2.10;;;;;;;;;;5073817;28;20185;-87
2023/03/05 14:40:05;;;;;;;2.17;1.85;;;;;;;;;;5072702;28;20271;-88
2023/03/05 14:42:35;;;;;;;3.05;1.85;;;;;;;;;;5073802;28;20200;-87
2023/03/05 14:45:12;;;;;;;2.03;1.83;;;;;;;;;;5073627;28;20224;-86
2023/03/05 14:47:41;;;;;;;2.50;2.00;;;;;;;;;;5074113;28;20587;-85
2023/03/05 14:50:11;;;;;;;1.90;1.67;;;;;;;;;;5073319;28;20268;-85
2023/03/05 14:52:38;;;;;;;1.88;1.77;;;;;;;;;;5073922;28;20308;-85
2023/03/05 14:55:07;;;;;;;2.10;1.92;;;;;;;;;;5073216;28;20224;-85
2023/03/05 14:57:34;;;;;;;1.60;1.50;;;;;;;;;;5054060;28;20231;-85
2023/03/05 15:00:02;;;;;;;2.20;1.80;;;;;;;;;;5052912;28;20288;-86
2023/03/05 15:02:30;;;;;;;2.20;2.03;;;;;;;;;;5053701;28;20604;-85
2023/03/05 15:04:58;;;;;;;2.65;2.15;;;;;;;;;;5053760;28;20794;-85
2023/03/05 15:07:30;;;;;;;6.93;2.00;;;;;;;;;;5052939;28;20290;-85